EKVG Airport Information

Runway Information
Runway 13 Length 5902 ft width 98 ft
Elevation 268 ft Threshold 0 ft Heading 118
Runway 31 Length 5902 ft Width 98 ft
Elevation 252 ft Threshold 0 ft Heading 298
Airport Frequencies
Type AFIS Name AFIS Frequency 124.85 MHZ
Airport Navaids
Type NDB Name Myggenes Frequency 337 KHZ
Type NDB Name Nolso Frequency 404 KHZ
Type NDB Name Vagar Frequency 348 KHZ
Airport Weather Information & NOTAM
ADDS - METARS form results

(1044 UTC 23 May 2019)
Data provider http://aviationweather.gov/metar/data/
 
METAR text: EKVG 231020Z AUTO 34021KT 9999NDV -SHRA BKN063/// 07/05 Q1011 RMK FEW011/// WIND SKEID 36038KT
Conditions at: EKVG (SORVAAG/VAGAR , DK) observed 1020 UTC 23 May 2019
Temperature: 7.0°C (45°F)
Dewpoint: 5.0°C (41°F) [RH = 87%]
Pressure (altimeter): 29.85 inches Hg (1011.0 mb)
Winds: from the NNW (340 degrees) at 24 MPH (21 knots; 10.8 m/s)
Visibility: missing
Ceiling: 6300 feet AGL
Clouds: broken clouds at 6300 feet AGL
Weather: -SHRA  (light rain showers)

METAR text: EKVG 230950Z AUTO 34022KT 9999NDV DZ OVC061/// 07/05 Q1010 RMK FEW012/// WIND SKEID 36033G45KT
Conditions at: EKVG (SORVAAG/VAGAR , DK) observed 0950 UTC 23 May 2019
Temperature: 7.0°C (45°F)
Dewpoint: 5.0°C (41°F) [RH = 87%]
Pressure (altimeter): 29.82 inches Hg (1010.0 mb)
Winds: from the NNW (340 degrees) at 25 MPH (22 knots; 11.3 m/s)
Visibility: missing
Ceiling: 6100 feet AGL
Clouds: overcast cloud deck at 6100 feet AGL
Weather: DZ  (moderate drizzle)

Forecast for: EKVG (SORVAAG/VAGAR , DK)
Text: TAF EKVG 230824Z 2309/2318 36020KT 9999 BKN015
Forecast period: 0900 to 1800 UTC 23 May 2019
Forecast type: FROM: standard forecast or significant change
Winds: from the N (360 degrees) at 23 MPH (20 knots; 10.3 m/s)
Visibility: 6 or more miles 10+ km)
Ceiling: 1500 feet AGL
Clouds: broken clouds at 1500 feet AGL
Weather: no significant weather forecast for this period
Text: TEMPO 2309/2314 36025G35KT RADZ BKN005
Forecast period: 0900 to 1400 UTC 23 May 2019
Forecast type: TEMPORARY: The following changes expected for less than half the time period
Winds: from the N (360 degrees) at 29 MPH (25 knots; 12.9 m/s)
gusting to 40 MPH (35 knots; 18.0 m/s)
Visibility: missing
Ceiling: 500 feet AGL
Clouds: broken clouds at 500 feet AGL
Weather: RA DZ  (moderate rain, moderate drizzle)
Text: TEMPO 2314/2318 36025G35KT BKN005
Forecast period: 1400 to 1800 UTC 23 May 2019
Forecast type: TEMPORARY: The following changes expected for less than half the time period
Winds: from the N (360 degrees) at 29 MPH (25 knots; 12.9 m/s)
gusting to 40 MPH (35 knots; 18.0 m/s)
Visibility: missing
Ceiling: 500 feet AGL
Clouds: broken clouds at 500 feet AGL
Weather: no significant weather forecast for this period